Home   Weather   Russia   Yuzhno-Sakhalinsk   Past weeks
Flag for Russia

Past Weather in Yuzhno-Sakhalinsk, Russia — Yesterday and Last 2 Weeks

Currently: 43 °F. Clear. (Weather station: Yuzhno Airport-Sakhalinsk, Russia). See more current weather

Past Weather in Yuzhno-Sakhalinsk — Graph

°F

Yuzhno-Sakhalinsk Temperature Yesterday

Maximum temperature yesterday: 46 °F (at 3:00 pm)
Minimum temperature yesterday: 34 °F (at 12:00 am)
Average temperature yesterday: 39 °F

High & Low Weather Summary for the Past Weeks

 TemperatureHumidityPressure
High66 °F (May 7, 2:30 pm)100% (Apr 30, 8:00 pm)30.21 "Hg (Apr 30, 8:00 pm)
Low23 °F (May 12, 4:00 am)24% (May 7, 7:00 pm)29.42 "Hg (May 3, 11:30 am)
Average40 °F82%29.74 "Hg
* Reported Apr 29 9:00 pm — May 14 9:30 pm, Yuzhno-Sakhalinsk. Weather by CustomWeather, © 2021

Note: Actual official high and low records may vary slightly from our data, if they occured in-between our weather recording intervals... More about our weather records

Yuzhno-Sakhalinsk Weather History for the Previous 24 Hours

Scroll right to see more
 ConditionsComfort  
Time TempWeatherWind HumidityBarometerVisibility
9:30 pm
Fri, May 14
45 °FClear.1 mph87%29.92 "HgN/A
9:00 pm46 °FClear.1 mph87%29.92 "HgN/A
8:30 pm48 °FClear.6 mph82%29.92 "HgN/A
8:00 pm50 °FClear.8 mph76%29.89 "HgN/A
7:30 pm52 °FClear.8 mph72%29.89 "HgN/A
7:00 pm52 °FClear.10 mph72%29.89 "HgN/A
6:30 pm52 °FClear.13 mph72%29.86 "HgN/A
6:00 pm52 °FClear.13 mph72%29.86 "HgN/A
5:30 pm54 °FClear.10 mph67%29.86 "HgN/A
5:00 pm54 °FClear.10 mph67%29.86 "HgN/A
4:30 pm54 °FClear.13 mph67%29.86 "HgN/A
4:00 pm54 °FClear.15 mph67%29.86 "HgN/A
3:30 pm55 °FClear.13 mph67%29.86 "HgN/A
3:00 pm54 °FClear.15 mph72%29.86 "HgN/A
2:30 pm52 °FClear.15 mph77%29.86 "HgN/A
2:00 pm52 °FClear.13 mph77%29.89 "HgN/A
1:30 pm50 °FClear.15 mph76%29.89 "HgN/A
1:00 pm54 °FClear.15 mph67%29.89 "HgN/A
12:30 pm54 °FClear.15 mph67%29.89 "HgN/A
12:00 pm52 °FClear.15 mph72%29.89 "HgN/A
11:30 am54 °FClear.8 mph63%29.89 "HgN/A
10:30 am50 °FClear.8 mph71%29.89 "HgN/A
10:00 am46 °FClear.6 mph82%29.89 "HgN/A
9:30 am43 °FClear.6 mph87%29.89 "HgN/A
9:00 am43 °FScattered clouds.6 mph87%29.92 "HgN/A
8:30 am39 °FSnow. Fog.1 mph100%29.92 "Hg5 mi
8:00 am36 °FSnow. Fog.6 mph100%29.92 "Hg1 mi
7:30 am34 °FPartly sunny.3 mph93%29.89 "Hg6 mi
7:00 am30 °FPartly sunny.3 mph100%29.89 "HgN/A
6:30 am30 °FClear.1 mph93%29.89 "Hg5 mi
6:00 am28 °FClear.1 mph100%29.89 "Hg5 mi
5:00 am28 °FClear.No wind100%29.92 "HgN/A
4:00 am28 °FClear.No wind100%29.92 "HgN/A
2:00 am30 °FClear.1 mph100%29.92 "HgN/A
1:00 am32 °FClear.3 mph93%29.95 "HgN/A
12:00 am34 °FClear.3 mph93%29.95 "HgN/A
11:00 pm
Thu, May 13
37 °FClear.6 mph87%29.95 "HgN/A
10:30 pm37 °FPassing clouds.6 mph87%29.95 "HgN/A
10:00 pm39 °FPassing clouds.6 mph87%29.95 "HgN/A
Weather by CustomWeather, © 2021

See weather overview